sensor_id;sensor_type;location;lat;lon;timestamp;pressure;altitude;pressure_sealevel;temperature;humidity
17950;BME280;9100;48.700;9.316;2023-02-14T00:00:17;99571.7;;;1.77;100
17950;BME280;9100;48.700;9.316;2023-02-14T00:01:17;99505;;;1.34;100
17950;BME280;9100;48.700;9.316;2023-02-14T00:01:38;99570.9;;;1.76;100
17950;BME280;9100;48.700;9.316;2023-02-14T00:02:17;99565;;;1.77;100
17950;BME280;9100;48.700;9.316;2023-02-14T00:03:17;99568.2;;;1.79;100
17950;BME280;9100;48.700;9.316;2023-02-14T00:04:17;99565.8;;;1.78;100
17950;BME280;9100;48.700;9.316;2023-02-14T00:05:16;99567.4;;;1.79;100
17950;BME280;9100;48.700;9.316;2023-02-14T00:06:16;99568.2;;;1.79;100
17950;BME280;9100;48.700;9.316;2023-02-14T00:06:38;99551.59999999999;;;1.77;100
17950;BME280;9100;48.700;9.316;2023-02-14T00:07:17;99558.2;;;1.79;100
17950;BME280;9100;48.700;9.316;2023-02-14T00:08:16;99559;;;1.8;100
17950;BME280;9100;48.700;9.316;2023-02-14T00:09:16;99552.20000000001;;;1.8;100
17950;BME280;9100;48.700;9.316;2023-02-14T00:10:16;99557.2;;;1.82;100
17950;BME280;9100;48.700;9.316;2023-02-14T00:11:16;99558.2;;;1.79;100
17950;BME280;9100;48.700;9.316;2023-02-14T00:11:38;99547.29999999999;;;1.77;100
17950;BME280;9100;48.700;9.316;2023-02-14T00:12:17;99551.5;;;1.78;100
17950;BME280;9100;48.700;9.316;2023-02-14T00:13:16;99550.7;;;1.78;100
17950;BME280;9100;48.700;9.316;2023-02-14T00:14:16;99559.79999999999;;;1.8;100
17950;BME280;9100;48.700;9.316;2023-02-14T00:15:16;99545.6;;;1.78;100
17950;BME280;9100;48.700;9.316;2023-02-14T00:16:17;99554.1;;;1.77;100
17950;BME280;9100;48.700;9.316;2023-02-14T00:16:38;99551.59999999999;;;1.77;100
17950;BME280;9100;48.700;9.316;2023-02-14T00:17:16;99549.90000000001;;;1.77;100
17950;BME280;9100;48.700;9.316;2023-02-14T00:18:16;99546.5;;;1.78;100
17950;BME280;9100;48.700;9.316;2023-02-14T00:19:17;99550.7;;;1.78;100
17950;BME280;9100;48.700;9.316;2023-02-14T00:20:16;99550.59999999999;;;1.79;100
17950;BME280;9100;48.700;9.316;2023-02-14T00:21:17;99554.8;;;1.79;100
17950;BME280;9100;48.700;9.316;2023-02-14T00:21:38;99548.90000000001;;;1.8;100
17950;BME280;9100;48.700;9.316;2023-02-14T00:22:16;99553.09999999999;;;1.79;100
17950;BME280;9100;48.700;9.316;2023-02-14T00:23:16;99556.4;;;1.81;100
17950;BME280;9100;48.700;9.316;2023-02-14T00:24:18;99561.40000000001;;;1.81;100
17950;BME280;9100;48.700;9.316;2023-02-14T00:25:16;99558;;;1.82;100
17950;BME280;9100;48.700;9.316;2023-02-14T00:26:16;99560.5;;;1.82;100
17950;BME280;9100;48.700;9.316;2023-02-14T00:26:38;99558.8;;;1.83;100
17950;BME280;9100;48.700;9.316;2023-02-14T00:27:16;99558;;;1.82;100
17950;BME280;9100;48.700;9.316;2023-02-14T00:28:16;99561.3;;;1.84;100
17950;BME280;9100;48.700;9.316;2023-02-14T00:29:18;99554.6;;;1.83;100
17950;BME280;9100;48.700;9.316;2023-02-14T00:30:16;99556.2;;;1.84;100
17950;BME280;9100;48.700;9.316;2023-02-14T00:31:17;99559.6;;;1.85;100
17950;BME280;9100;48.700;9.316;2023-02-14T00:31:38;99553.8;;;1.83;100
17950;BME280;9100;48.700;9.316;2023-02-14T00:32:16;99554.6;;;1.83;100
17950;BME280;9100;48.700;9.316;2023-02-14T00:33:17;99555.4;;;1.84;100
17950;BME280;9100;48.700;9.316;2023-02-14T00:34:17;99558.8;;;1.84;100
17950;BME280;9100;48.700;9.316;2023-02-14T00:35:16;99566.3;;;1.84;100
17950;BME280;9100;48.700;9.316;2023-02-14T00:36:16;99558.8;;;1.83;100
17950;BME280;9100;48.700;9.316;2023-02-14T00:36:38;99558;;;1.82;100
17950;BME280;9100;48.700;9.316;2023-02-14T00:37:16;99555.5;;;1.82;100
17950;BME280;9100;48.700;9.316;2023-02-14T00:38:17;99557.9;;;1.84;100
17950;BME280;9100;48.700;9.316;2023-02-14T00:39:17;99556.2;;;1.84;100
17950;BME280;9100;48.700;9.316;2023-02-14T00:40:16;99554.6;;;1.83;100
17950;BME280;9100;48.700;9.316;2023-02-14T00:41:16;99567.3;;;1.82;100
17950;BME280;9100;48.700;9.316;2023-02-14T00:41:39;99556.4;;;1.81;100
17950;BME280;9100;48.700;9.316;2023-02-14T00:42:16;99472.29999999999;;;1.32;100
17950;BME280;9100;48.700;9.316;2023-02-14T00:43:16;99550.5;;;1.81;100
17950;BME280;9100;48.700;9.316;2023-02-14T00:44:17;99556.5;;;1.8;100
17950;BME280;9100;48.700;9.316;2023-02-14T00:45:16;99558.2;;;1.79;100
17950;BME280;9100;48.700;9.316;2023-02-14T00:46:17;99556.5;;;1.78;100
17950;BME280;9100;48.700;9.316;2023-02-14T00:46:38;99557.3;;;1.79;100
17950;BME280;9100;48.700;9.316;2023-02-14T00:47:17;99554.9;;;1.77;100
17950;BME280;9100;48.700;9.316;2023-02-14T00:48:16;99560;;;1.77;100
17950;BME280;9100;48.700;9.316;2023-02-14T00:49:16;99560;;;1.77;100
17950;BME280;9100;48.700;9.316;2023-02-14T00:50:16;99565;;;1.77;100
17950;BME280;9100;48.700;9.316;2023-02-14T00:51:16;99570.2;;;1.74;100
17950;BME280;9100;48.700;9.316;2023-02-14T00:51:38;99560.90000000001;;;1.75;100
17950;BME280;9100;48.700;9.316;2023-02-14T00:52:16;99562.59999999999;;;1.74;100
17950;BME280;9100;48.700;9.316;2023-02-14T00:53:17;99565.20000000001;;;1.74;100
17950;BME280;9100;48.700;9.316;2023-02-14T00:54:17;99560.90000000001;;;1.75;100
17950;BME280;9100;48.700;9.316;2023-02-14T00:55:16;99558.5;;;1.73;100
17950;BME280;9100;48.700;9.316;2023-02-14T00:56:17;99572;;;1.72;100
17950;BME280;9100;48.700;9.316;2023-02-14T00:56:39;99562.8;;;1.71;100
17950;BME280;9100;48.700;9.316;2023-02-14T00:57:16;99561.90000000001;;;1.72;100
17950;BME280;9100;48.700;9.316;2023-02-14T00:58:16;99561.90000000001;;;1.72;100
17950;BME280;9100;48.700;9.316;2023-02-14T00:59:16;99556.8;;;1.72;100
17950;BME280;9100;48.700;9.316;2023-02-14T01:00:16;99563.7;;;1.7;100
17950;BME280;9100;48.700;9.316;2023-02-14T01:01:16;99561.2;;;1.7;100
17950;BME280;9100;48.700;9.316;2023-02-14T01:01:38;99561.2;;;1.69;100
17950;BME280;9100;48.700;9.316;2023-02-14T01:02:16;99558.7;;;1.69;100
17950;BME280;9100;48.700;9.316;2023-02-14T01:03:16;99555.7;;;1.62;100
17950;BME280;9100;48.700;9.316;2023-02-14T01:04:16;99558;;;1.65;100
17950;BME280;9100;48.700;9.316;2023-02-14T01:05:16;99565.59999999999;;;1.65;100
17950;BME280;9100;48.700;9.316;2023-02-14T01:06:16;99563.2;;;1.64;100
17950;BME280;9100;48.700;9.316;2023-02-14T01:06:38;99566.6;;;1.63;100
17950;BME280;9100;48.700;9.316;2023-02-14T01:07:16;99561.5;;;1.63;100
17950;BME280;9100;48.700;9.316;2023-02-14T01:08:17;99563.2;;;1.62;100
17950;BME280;9100;48.700;9.316;2023-02-14T01:09:16;99564.09999999999;;;1.61;100
17950;BME280;9100;48.700;9.316;2023-02-14T01:10:16;99560.7;;;1.62;100
17950;BME280;9100;48.700;9.316;2023-02-14T01:11:17;99567.5;;;1.62;100
17950;BME280;9100;48.700;9.316;2023-02-14T01:11:38;99569.2;;;1.61;100
17950;BME280;9100;48.700;9.316;2023-02-14T01:12:16;99565.8;;;1.62;100
17950;BME280;9100;48.700;9.316;2023-02-14T01:13:16;99565.8;;;1.62;100
17950;BME280;9100;48.700;9.316;2023-02-14T01:14:16;99564.9;;;1.63;100
17950;BME280;9100;48.700;9.316;2023-02-14T01:15:16;99564.09999999999;;;1.61;100
17950;BME280;9100;48.700;9.316;2023-02-14T01:16:17;99561.6;;;1.61;100
17950;BME280;9100;48.700;9.316;2023-02-14T01:16:39;99564.09999999999;;;1.61;100
17950;BME280;9100;48.700;9.316;2023-02-14T01:17:16;99564.09999999999;;;1.61;100
17950;BME280;9100;48.700;9.316;2023-02-14T01:18:16;99566.6;;;1.61;100
17950;BME280;9100;48.700;9.316;2023-02-14T01:19:16;99570.8;;;1.62;100
17950;BME280;9100;48.700;9.316;2023-02-14T01:20:16;99565.8;;;1.61;100
17950;BME280;9100;48.700;9.316;2023-02-14T01:21:17;99565;;;1.6;100
17950;BME280;9100;48.700;9.316;2023-02-14T01:21:38;99562.5;;;1.6;100
17950;BME280;9100;48.700;9.316;2023-02-14T01:22:16;99519.1;;;1.36;100
17950;BME280;9100;48.700;9.316;2023-02-14T01:23:17;99563.3;;;1.61;100
17950;BME280;9100;48.700;9.316;2023-02-14T01:24:17;99562.5;;;1.6;100
17950;BME280;9100;48.700;9.316;2023-02-14T01:25:16;99558.3;;;1.59;100
17950;BME280;9100;48.700;9.316;2023-02-14T01:26:16;99552.5;;;1.57;100
17950;BME280;9100;48.700;9.316;2023-02-14T01:26:38;99554.2;;;1.58;100
17950;BME280;9100;48.700;9.316;2023-02-14T01:27:16;99562.59999999999;;;1.59;100
17950;BME280;9100;48.700;9.316;2023-02-14T01:28:16;99562.5;;;1.6;100
17950;BME280;9100;48.700;9.316;2023-02-14T01:29:16;99553.4;;;1.58;100
17950;BME280;9100;48.700;9.316;2023-02-14T01:30:16;99552.5;;;1.57;100
17950;BME280;9100;48.700;9.316;2023-02-14T01:31:17;99566;;;1.58;100
17950;BME280;9100;48.700;9.316;2023-02-14T01:31:39;99558.5;;;1.56;100
17950;BME280;9100;48.700;9.316;2023-02-14T01:32:16;99558.5;;;1.56;100
17950;BME280;9100;48.700;9.316;2023-02-14T01:33:16;99556;;;1.56;100
17950;BME280;9100;48.700;9.316;2023-02-14T01:34:16;99559.3;;;1.57;100
17950;BME280;9100;48.700;9.316;2023-02-14T01:35:17;99561;;;1.56;100
17950;BME280;9100;48.700;9.316;2023-02-14T01:36:17;99559.40000000001;;;1.55;100
17950;BME280;9100;48.700;9.316;2023-02-14T01:36:38;99562.8;;;1.54;100
17950;BME280;9100;48.700;9.316;2023-02-14T01:37:16;99560.29999999999;;;1.54;100
17950;BME280;9100;48.700;9.316;2023-02-14T01:38:16;99567.8;;;1.54;100
17950;BME280;9100;48.700;9.316;2023-02-14T01:39:16;99556.1;;;1.53;100
17950;BME280;9100;48.700;9.316;2023-02-14T01:40:16;99564.5;;;1.54;100
17950;BME280;9100;48.700;9.316;2023-02-14T01:41:16;99562.90000000001;;;1.51;100
17950;BME280;9100;48.700;9.316;2023-02-14T01:41:39;99557.9;;;1.51;100
17950;BME280;9100;48.700;9.316;2023-02-14T01:42:16;99550.40000000001;;;1.5;100
17950;BME280;9100;48.700;9.316;2023-02-14T01:43:17;99554.6;;;1.49;100
17950;BME280;9100;48.700;9.316;2023-02-14T01:44:53;99557.9;;;1.51;100
17950;BME280;9100;48.700;9.316;2023-02-14T01:45:16;99556.3;;;1.5;100
17950;BME280;9100;48.700;9.316;2023-02-14T01:46:16;99560.5;;;1.5;100
17950;BME280;9100;48.700;9.316;2023-02-14T01:46:38;99554.6;;;1.49;100
17950;BME280;9100;48.700;9.316;2023-02-14T01:47:16;99552.20000000001;;;1.48;100
17950;BME280;9100;48.700;9.316;2023-02-14T01:48:16;99555.5;;;1.48;100
17950;BME280;9100;48.700;9.316;2023-02-14T01:49:17;99553.8;;;1.49;100
17950;BME280;9100;48.700;9.316;2023-02-14T01:50:18;99550.5;;;1.48;100
17950;BME280;9100;48.700;9.316;2023-02-14T01:51:16;99553.09999999999;;;1.46;100
17950;BME280;9100;48.700;9.316;2023-02-14T01:51:40;99546.5;;;1.44;100
17950;BME280;9100;48.700;9.316;2023-02-14T01:52:17;99547.29999999999;;;1.44;100
17950;BME280;9100;48.700;9.316;2023-02-14T01:53:18;99549;;;1.44;100
17950;BME280;9100;48.700;9.316;2023-02-14T01:54:18;99550.7;;;1.43;100
17950;BME280;9100;48.700;9.316;2023-02-14T01:55:17;99548.2;;;1.43;100
17950;BME280;9100;48.700;9.316;2023-02-14T01:56:17;99549.90000000001;;;1.43;100
17950;BME280;9100;48.700;9.316;2023-02-14T01:56:39;99553.3;;;1.42;100
17950;BME280;9100;48.700;9.316;2023-02-14T01:57:16;99549.1;;;1.42;100
17950;BME280;9100;48.700;9.316;2023-02-14T01:58:17;99551.59999999999;;;1.42;100
17950;BME280;9100;48.700;9.316;2023-02-14T01:59:17;99546.7;;;1.41;100
17950;BME280;9100;48.700;9.316;2023-02-14T02:00:16;99546.7;;;1.41;100
17950;BME280;9100;48.700;9.316;2023-02-14T02:01:16;99551.8;;;1.39;100
17950;BME280;9100;48.700;9.316;2023-02-14T02:01:38;99556.8;;;1.39;100
17950;BME280;9100;48.700;9.316;2023-02-14T02:02:16;99545.9;;;1.39;100
17950;BME280;9100;48.700;9.316;2023-02-14T02:03:16;99549.3;;;1.38;100
17950;BME280;9100;48.700;9.316;2023-02-14T02:04:17;99561.90000000001;;;1.38;100
17950;BME280;9100;48.700;9.316;2023-02-14T02:05:16;99556.1;;;1.37;100
17950;BME280;9100;48.700;9.316;2023-02-14T02:06:17;99553.59999999999;;;1.36;100
17950;BME280;9100;48.700;9.316;2023-02-14T02:06:38;99560.29999999999;;;1.37;100
17950;BME280;9100;48.700;9.316;2023-02-14T02:07:18;99554.4;;;1.36;100
17950;BME280;9100;48.700;9.316;2023-02-14T02:08:17;99545.3;;;1.34;100
17950;BME280;9100;48.700;9.316;2023-02-14T02:09:17;99550.40000000001;;;1.34;100
17950;BME280;9100;48.700;9.316;2023-02-14T02:10:17;99547.90000000001;;;1.32;100
17950;BME280;9100;48.700;9.316;2023-02-14T02:11:16;99548.8;;;1.31;100
17950;BME280;9100;48.700;9.316;2023-02-14T02:11:38;99544.6;;;1.3;100
17950;BME280;9100;48.700;9.316;2023-02-14T02:12:17;99542.9;;;1.31;100
17950;BME280;9100;48.700;9.316;2023-02-14T02:13:16;99541.3;;;1.3;100
17950;BME280;9100;48.700;9.316;2023-02-14T02:14:17;99554.7;;;1.3;100
17950;BME280;9100;48.700;9.316;2023-02-14T02:15:17;99548;;;1.31;100
17950;BME280;9100;48.700;9.316;2023-02-14T02:16:21;99549.7;;;1.3;100
17950;BME280;9100;48.700;9.316;2023-02-14T02:16:43;99546.3;;;1.31;100
17950;BME280;9100;48.700;9.316;2023-02-14T02:17:19;99542.1;;;1.3;100
17950;BME280;9100;48.700;9.316;2023-02-14T02:18:18;99545.4;;;1.31;100
17950;BME280;9100;48.700;9.316;2023-02-14T02:20:23;99544.6;;;1.32;100
17950;BME280;9100;48.700;9.316;2023-02-14T02:21:22;99539.5;;;1.32;100
17950;BME280;9100;48.700;9.316;2023-02-14T02:21:46;99547.1;;;1.32;100
17950;BME280;9100;48.700;9.316;2023-02-14T02:22:28;99539.5;;;1.32;100
17950;BME280;9100;48.700;9.316;2023-02-14T02:23:24;99537;;;1.32;100
17950;BME280;9100;48.700;9.316;2023-02-14T02:24:18;99538.59999999999;;;1.33;100
17950;BME280;9100;48.700;9.316;2023-02-14T02:25:20;99537;;;1.32;100
17950;BME280;9100;48.700;9.316;2023-02-14T02:26:25;99539.5;;;1.32;100
17950;BME280;9100;48.700;9.316;2023-02-14T02:26:54;99541.2;;;1.31;100
17950;BME280;9100;48.700;9.316;2023-02-14T02:27:23;99532.8;;;1.32;100
17950;BME280;9100;48.700;9.316;2023-02-14T02:28:23;99540.4;;;1.31;100
17950;BME280;9100;48.700;9.316;2023-02-14T02:29:26;99535.40000000001;;;1.31;100
17950;BME280;9100;48.700;9.316;2023-02-14T02:30:22;99535.40000000001;;;1.31;100
17950;BME280;9100;48.700;9.316;2023-02-14T02:31:20;99534.6;;;1.29;100
17950;BME280;9100;48.700;9.316;2023-02-14T02:31:47;99543.8;;;1.3;100
17950;BME280;9100;48.700;9.316;2023-02-14T02:32:21;99534.6;;;1.29;100
17950;BME280;9100;48.700;9.316;2023-02-14T02:33:22;99540.59999999999;;;1.28;100
17950;BME280;9100;48.700;9.316;2023-02-14T02:34:21;99542.3;;;1.27;100
17950;BME280;9100;48.700;9.316;2023-02-14T02:35:18;99544;;;1.27;100
17950;BME280;9100;48.700;9.316;2023-02-14T02:36:22;99544;;;1.27;100
17950;BME280;9100;48.700;9.316;2023-02-14T02:36:45;99537.3;;;1.26;100
17950;BME280;9100;48.700;9.316;2023-02-14T02:37:20;99544.1;;;1.25;100
17950;BME280;9100;48.700;9.316;2023-02-14T02:38:19;99545.8;;;1.25;100
17950;BME280;9100;48.700;9.316;2023-02-14T02:39:20;99549.90000000001;;;1.26;100
17950;BME280;9100;48.700;9.316;2023-02-14T02:40:21;99553.3;;;1.25;100
17950;BME280;9100;48.700;9.316;2023-02-14T02:41:17;99545.8;;;1.25;100
17950;BME280;9100;48.700;9.316;2023-02-14T02:41:46;99549.2;;;1.24;100
17950;BME280;9100;48.700;9.316;2023-02-14T02:42:20;99550;;;1.24;100
17950;BME280;9100;48.700;9.316;2023-02-14T02:43:21;99553.3;;;1.25;100
17950;BME280;9100;48.700;9.316;2023-02-14T02:44:17;99551.70000000001;;;1.24;100
17950;BME280;9100;48.700;9.316;2023-02-14T02:45:19;99554.3;;;1.22;100
17950;BME280;9100;48.700;9.316;2023-02-14T02:46:19;99552.70000000001;;;1.2;100
17950;BME280;9100;48.700;9.316;2023-02-14T02:46:38;99559.40000000001;;;1.21;100
17950;BME280;9100;48.700;9.316;2023-02-14T02:47:17;99560.29999999999;;;1.2;100
17950;BME280;9100;48.700;9.316;2023-02-14T02:48:17;99556.1;;;1.19;100
17950;BME280;9100;48.700;9.316;2023-02-14T02:49:20;99559.5;;;1.18;100
17950;BME280;9100;48.700;9.316;2023-02-14T02:50:17;99546.2;;;1.16;100
17950;BME280;9100;48.700;9.316;2023-02-14T02:51:19;99563.09999999999;;;1.14;100
17950;BME280;9100;48.700;9.316;2023-02-14T02:51:42;99551.4;;;1.13;100
17950;BME280;9100;48.700;9.316;2023-02-14T02:52:19;99552.09999999999;;;1.15;100
17950;BME280;9100;48.700;9.316;2023-02-14T02:53:17;99561.5;;;1.13;100
17950;BME280;9100;48.700;9.316;2023-02-14T02:54:18;99562.3;;;1.13;100
17950;BME280;9100;48.700;9.316;2023-02-14T02:55:18;99556.4;;;1.13;100
17950;BME280;9100;48.700;9.316;2023-02-14T02:56:17;99489.4;;;0.74;100
17950;BME280;9100;48.700;9.316;2023-02-14T02:56:38;99555.6;;;1.12;100
17950;BME280;9100;48.700;9.316;2023-02-14T02:57:17;99555.6;;;1.12;100
17950;BME280;9100;48.700;9.316;2023-02-14T02:58:16;99555.5;;;1.15;100
17950;BME280;9100;48.700;9.316;2023-02-14T02:59:17;99549.59999999999;;;1.15;100
17950;BME280;9100;48.700;9.316;2023-02-14T03:00:17;99549.59999999999;;;1.15;100
17950;BME280;9100;48.700;9.316;2023-02-14T03:01:17;99555.6;;;1.12;100
17950;BME280;9100;48.700;9.316;2023-02-14T03:01:38;99550.59999999999;;;1.12;100
17950;BME280;9100;48.700;9.316;2023-02-14T03:02:17;99545.5;;;1.12;100
17950;BME280;9100;48.700;9.316;2023-02-14T03:03:16;99548.1;;;1.11;100
17950;BME280;9100;48.700;9.316;2023-02-14T03:04:16;99549.8;;;1.12;100
17950;BME280;9100;48.700;9.316;2023-02-14T03:05:16;99548.1;;;1.11;100
17950;BME280;9100;48.700;9.316;2023-02-14T03:06:16;99551.5;;;1.1;100
17950;BME280;9100;48.700;9.316;2023-02-14T03:06:38;99550.8;;;1.08;100
17950;BME280;9100;48.700;9.316;2023-02-14T03:07:16;99476.5;;;0.63;100
17950;BME280;9100;48.700;9.316;2023-02-14T03:08:16;99555.8;;;1.08;100
17950;BME280;9100;48.700;9.316;2023-02-14T03:09:48;99552.5;;;1.07;100
17950;BME280;9100;48.700;9.316;2023-02-14T03:10:18;99555.1;;;1.06;100
17950;BME280;9100;48.700;9.316;2023-02-14T03:11:16;99555.2;;;1.04;100
17950;BME280;9100;48.700;9.316;2023-02-14T03:11:39;99551.8;;;1.04;100
17950;BME280;9100;48.700;9.316;2023-02-14T03:12:18;99551.9;;;1.02;100
17950;BME280;9100;48.700;9.316;2023-02-14T03:14:17;99555.2;;;1.03;100
17950;BME280;9100;48.700;9.316;2023-02-14T03:14:21;99556.1;;;1.02;100
17950;BME280;9100;48.700;9.316;2023-02-14T03:15:20;99555.2;;;1.03;100
17950;BME280;9100;48.700;9.316;2023-02-14T03:16:24;99557.7;;;1.04;100
17950;BME280;9100;48.700;9.316;2023-02-14T03:16:40;99551.8;;;1.04;100
17950;BME280;9100;48.700;9.316;2023-02-14T03:17:18;99553.4;;;1.05;100
17950;BME280;9100;48.700;9.316;2023-02-14T03:18:19;99556.9;;;1.04;100
17950;BME280;9100;48.700;9.316;2023-02-14T03:19:20;99554.3;;;1.04;100
17950;BME280;9100;48.700;9.316;2023-02-14T03:20:19;99553.4;;;1.05;100
17950;BME280;9100;48.700;9.316;2023-02-14T03:21:19;99556;;;1.05;100
17950;BME280;9100;48.700;9.316;2023-02-14T03:21:40;99552.59999999999;;;1.04;100
17950;BME280;9100;48.700;9.316;2023-02-14T03:22:18;99558.5;;;1.05;100
17950;BME280;9100;48.700;9.316;2023-02-14T03:23:18;99560.1;;;1.06;100
17950;BME280;9100;48.700;9.316;2023-02-14T03:24:18;99566.8;;;1.07;100
17950;BME280;9100;48.700;9.316;2023-02-14T03:25:19;99555.9;;;1.06;100
17950;BME280;9100;48.700;9.316;2023-02-14T03:26:17;99553.4;;;1.05;100
17950;BME280;9100;48.700;9.316;2023-02-14T03:26:42;99561;;;1.05;100
17950;BME280;9100;48.700;9.316;2023-02-14T03:27:17;99557.6;;;1.06;100
17950;BME280;9100;48.700;9.316;2023-02-14T03:28:17;99560.1;;;1.06;100
17950;BME280;9100;48.700;9.316;2023-02-14T03:29:18;99555.9;;;1.06;100
17950;BME280;9100;48.700;9.316;2023-02-14T03:30:17;99554.2;;;1.07;100
17950;BME280;9100;48.700;9.316;2023-02-14T03:31:18;99555.1;;;1.06;100
17950;BME280;9100;48.700;9.316;2023-02-14T03:31:41;99550.9;;;1.06;100
17950;BME280;9100;48.700;9.316;2023-02-14T03:32:18;99558.4;;;1.08;100
17950;BME280;9100;48.700;9.316;2023-02-14T03:33:17;99554;;;1.1;100
17950;BME280;9100;48.700;9.316;2023-02-14T03:34:18;99557.5;;;1.09;100
17950;BME280;9100;48.700;9.316;2023-02-14T03:35:19;99556.6;;;1.08;100
17950;BME280;9100;48.700;9.316;2023-02-14T03:36:17;99551.59999999999;;;1.08;100
17950;BME280;9100;48.700;9.316;2023-02-14T03:36:39;99553.3;;;1.08;100
17950;BME280;9100;48.700;9.316;2023-02-14T03:37:19;99555.1;;;1.06;100
17950;BME280;9100;48.700;9.316;2023-02-14T03:38:18;99555.9;;;1.06;100
17950;BME280;9100;48.700;9.316;2023-02-14T03:39:17;99555.1;;;1.06;100
17950;BME280;9100;48.700;9.316;2023-02-14T03:40:17;99550.9;;;1.05;100
17950;BME280;9100;48.700;9.316;2023-02-14T03:41:17;99555.1;;;1.06;100
17950;BME280;9100;48.700;9.316;2023-02-14T03:41:42;99544.2;;;1.05;100
17950;BME280;9100;48.700;9.316;2023-02-14T03:42:18;99554.2;;;1.07;100
17950;BME280;9100;48.700;9.316;2023-02-14T03:43:17;99550.9;;;1.06;100
17950;BME280;9100;48.700;9.316;2023-02-14T03:44:17;99550;;;1.06;100
17950;BME280;9100;48.700;9.316;2023-02-14T03:45:17;99548.40000000001;;;1.05;100
17950;BME280;9100;48.700;9.316;2023-02-14T03:46:18;99547.6;;;1.04;100
17950;BME280;9100;48.700;9.316;2023-02-14T03:46:39;99556.9;;;1.04;100
17950;BME280;9100;48.700;9.316;2023-02-14T03:47:17;99553.59999999999;;;1.02;100
17950;BME280;9100;48.700;9.316;2023-02-14T03:48:16;99551.09999999999;;;1.02;100
17950;BME280;9100;48.700;9.316;2023-02-14T03:49:18;99486.90000000001;;;0.57;100
17950;BME280;9100;48.700;9.316;2023-02-14T03:50:17;99553.59999999999;;;1.02;100
17950;BME280;9100;48.700;9.316;2023-02-14T03:51:16;99547.7;;;1.01;100
17950;BME280;9100;48.700;9.316;2023-02-14T03:51:38;99553.59999999999;;;1.02;100
17950;BME280;9100;48.700;9.316;2023-02-14T03:52:16;99554.4;;;1.02;100
17950;BME280;9100;48.700;9.316;2023-02-14T03:53:19;99552;;;1.01;100
17950;BME280;9100;48.700;9.316;2023-02-14T03:54:16;99545.2;;;1.01;100
17950;BME280;9100;48.700;9.316;2023-02-14T03:55:19;99552.9;;;1;100
17950;BME280;9100;48.700;9.316;2023-02-14T03:56:17;99546.2;;;0.98;100
17950;BME280;9100;48.700;9.316;2023-02-14T03:56:39;99552.09999999999;;;0.97;100
17950;BME280;9100;48.700;9.316;2023-02-14T03:57:17;99548.8;;;0.97;100
17950;BME280;9100;48.700;9.316;2023-02-14T03:58:18;99548;;;0.96;100
17950;BME280;9100;48.700;9.316;2023-02-14T03:59:18;99548.90000000001;;;0.95;100
17950;BME280;9100;48.700;9.316;2023-02-14T04:00:17;99546.3;;;0.95;100
17950;BME280;9100;48.700;9.316;2023-02-14T04:01:17;99539.70000000001;;;0.94;100
17950;BME280;9100;48.700;9.316;2023-02-14T04:01:41;99540.5;;;0.93;100
17950;BME280;9100;48.700;9.316;2023-02-14T04:02:17;99544.8;;;0.93;100
17950;BME280;9100;48.700;9.316;2023-02-14T04:03:16;99490.7;;;0.66;100
17950;BME280;9100;48.700;9.316;2023-02-14T04:04:20;99535.6;;;0.92;100
17950;BME280;9100;48.700;9.316;2023-02-14T04:05:17;99531.5;;;0.89;100
17950;BME280;9100;48.700;9.316;2023-02-14T04:06:16;99527.4;;;0.88;100
17950;BME280;9100;48.700;9.316;2023-02-14T04:06:38;99534;;;0.89;100
17950;BME280;9100;48.700;9.316;2023-02-14T04:07:17;99534;;;0.89;100
17950;BME280;9100;48.700;9.316;2023-02-14T04:08:19;99536.5;;;0.89;100
17950;BME280;9100;48.700;9.316;2023-02-14T04:09:16;99537.40000000001;;;0.88;100
17950;BME280;9100;48.700;9.316;2023-02-14T04:10:16;99532.4;;;0.88;100
17950;BME280;9100;48.700;9.316;2023-02-14T04:11:16;99529.1;;;0.88;100
17950;BME280;9100;48.700;9.316;2023-02-14T04:11:38;99532.4;;;0.88;100
17950;BME280;9100;48.700;9.316;2023-02-14T04:12:17;99534;;;0.89;100
17950;BME280;9100;48.700;9.316;2023-02-14T04:13:16;99534;;;0.89;100
17950;BME280;9100;48.700;9.316;2023-02-14T04:14:16;99530.6;;;0.9;100
17950;BME280;9100;48.700;9.316;2023-02-14T04:15:16;99529;;;0.89;100
17950;BME280;9100;48.700;9.316;2023-02-14T04:16:16;99534;;;0.89;100
17950;BME280;9100;48.700;9.316;2023-02-14T04:16:38;99533.2;;;0.89;100
17950;BME280;9100;48.700;9.316;2023-02-14T04:17:16;99534.79999999999;;;0.9;100
17950;BME280;9100;48.700;9.316;2023-02-14T04:18:16;99534.79999999999;;;0.91;100
17950;BME280;9100;48.700;9.316;2023-02-14T04:19:16;99529.8;;;0.9;100
17950;BME280;9100;48.700;9.316;2023-02-14T04:20:16;99534;;;0.89;100
17950;BME280;9100;48.700;9.316;2023-02-14T04:21:16;99532.5;;;0.87;100
17950;BME280;9100;48.700;9.316;2023-02-14T04:21:38;99529.9;;;0.87;100
17950;BME280;9100;48.700;9.316;2023-02-14T04:22:16;99532.5;;;0.85;100
17950;BME280;9100;48.700;9.316;2023-02-14T04:23:16;99527.5;;;0.85;100
17950;BME280;9100;48.700;9.316;2023-02-14T04:24:16;99534.3;;;0.83;100
17950;BME280;9100;48.700;9.316;2023-02-14T04:25:16;99521.8;;;0.82;100
17950;BME280;9100;48.700;9.316;2023-02-14T04:26:16;99523.6;;;0.8;100
17950;BME280;9100;48.700;9.316;2023-02-14T04:26:38;99521;;;0.81;100
17950;BME280;9100;48.700;9.316;2023-02-14T04:27:16;99526;;;0.81;100
17950;BME280;9100;48.700;9.316;2023-02-14T04:28:16;99524.40000000001;;;0.8;100
17950;BME280;9100;48.700;9.316;2023-02-14T04:29:16;99528.5;;;0.83;100
17950;BME280;9100;48.700;9.316;2023-02-14T04:30:16;99518.5;;;0.8;100
17950;BME280;9100;48.700;9.316;2023-02-14T04:31:16;99522.79999999999;;;0.78;100
17950;BME280;9100;48.700;9.316;2023-02-14T04:31:38;99525.40000000001;;;0.78;100
17950;BME280;9100;48.700;9.316;2023-02-14T04:32:17;99522.7;;;0.79;100
17950;BME280;9100;48.700;9.316;2023-02-14T04:33:16;99521.1;;;0.78;100
17950;BME280;9100;48.700;9.316;2023-02-14T04:34:16;99526.09999999999;;;0.78;100
17950;BME280;9100;48.700;9.316;2023-02-14T04:35:16;99522;;;0.77;100
17950;BME280;9100;48.700;9.316;2023-02-14T04:36:16;99517.9;;;0.76;100
17950;BME280;9100;48.700;9.316;2023-02-14T04:36:39;99521.3;;;0.75;100
17950;BME280;9100;48.700;9.316;2023-02-14T04:37:17;99518.7;;;0.77;100